sensor_id;sensor_type;location;lat;lon;timestamp;temperature;humidity
26909;DHT22;14477;51.038;4.588;2024-01-27T00:01:32;5.20;99.90
26909;DHT22;14477;51.038;4.588;2024-01-27T00:03:58;5.20;99.90
26909;DHT22;14477;51.038;4.588;2024-01-27T00:06:24;5.10;99.90
26909;DHT22;14477;51.038;4.588;2024-01-27T00:08:50;5.10;99.90
26909;DHT22;14477;51.038;4.588;2024-01-27T00:11:16;5.10;99.90
26909;DHT22;14477;51.038;4.588;2024-01-27T00:13:41;5.00;99.90
26909;DHT22;14477;51.038;4.588;2024-01-27T00:16:08;5.00;99.90
26909;DHT22;14477;51.038;4.588;2024-01-27T00:18:36;4.90;99.90
26909;DHT22;14477;51.038;4.588;2024-01-27T00:21:02;4.90;99.90
26909;DHT22;14477;51.038;4.588;2024-01-27T00:23:28;4.80;99.90
26909;DHT22;14477;51.038;4.588;2024-01-27T00:25:54;4.80;99.90
26909;DHT22;14477;51.038;4.588;2024-01-27T00:28:20;4.70;99.90
26909;DHT22;14477;51.038;4.588;2024-01-27T00:30:45;4.70;99.90
26909;DHT22;14477;51.038;4.588;2024-01-27T00:33:11;4.70;99.90
26909;DHT22;14477;51.038;4.588;2024-01-27T00:35:37;4.60;99.90
26909;DHT22;14477;51.038;4.588;2024-01-27T00:38:02;4.60;99.90
26909;DHT22;14477;51.038;4.588;2024-01-27T00:40:28;4.60;99.90
26909;DHT22;14477;51.038;4.588;2024-01-27T00:42:54;7.10;99.90
26909;DHT22;14477;51.038;4.588;2024-01-27T00:45:20;4.50;99.90
26909;DHT22;14477;51.038;4.588;2024-01-27T00:47:49;4.60;99.90
26909;DHT22;14477;51.038;4.588;2024-01-27T00:50:15;4.50;99.90
26909;DHT22;14477;51.038;4.588;2024-01-27T00:52:41;4.40;99.90
26909;DHT22;14477;51.038;4.588;2024-01-27T00:55:07;4.40;99.90
26909;DHT22;14477;51.038;4.588;2024-01-27T00:57:32;4.30;99.90
26909;DHT22;14477;51.038;4.588;2024-01-27T00:59:58;4.30;99.90
26909;DHT22;14477;51.038;4.588;2024-01-27T01:02:24;3.50;99.90
26909;DHT22;14477;51.038;4.588;2024-01-27T01:04:50;4.20;99.90
26909;DHT22;14477;51.038;4.588;2024-01-27T01:07:15;4.30;99.90
26909;DHT22;14477;51.038;4.588;2024-01-27T01:09:41;4.20;99.90
26909;DHT22;14477;51.038;4.588;2024-01-27T01:12:07;4.20;99.90
26909;DHT22;14477;51.038;4.588;2024-01-27T01:14:32;4.20;99.90
26909;DHT22;14477;51.038;4.588;2024-01-27T01:16:58;4.20;99.90
26909;DHT22;14477;51.038;4.588;2024-01-27T01:19:24;4.20;99.90
26909;DHT22;14477;51.038;4.588;2024-01-27T01:21:50;7.30;99.90
26909;DHT22;14477;51.038;4.588;2024-01-27T01:24:15;4.10;99.90
26909;DHT22;14477;51.038;4.588;2024-01-27T01:26:41;6.70;99.90
26909;DHT22;14477;51.038;4.588;2024-01-27T01:29:07;4.10;99.90
26909;DHT22;14477;51.038;4.588;2024-01-27T01:31:32;4.00;99.90
26909;DHT22;14477;51.038;4.588;2024-01-27T01:33:58;4.00;99.90
26909;DHT22;14477;51.038;4.588;2024-01-27T01:36:24;4.00;99.90
26909;DHT22;14477;51.038;4.588;2024-01-27T01:38:49;4.00;99.90
26909;DHT22;14477;51.038;4.588;2024-01-27T01:41:15;4.00;99.90
26909;DHT22;14477;51.038;4.588;2024-01-27T01:43:41;4.00;99.90
26909;DHT22;14477;51.038;4.588;2024-01-27T01:46:06;4.00;99.90
26909;DHT22;14477;51.038;4.588;2024-01-27T01:48:33;3.90;99.90
26909;DHT22;14477;51.038;4.588;2024-01-27T01:51:00;3.90;99.90
26909;DHT22;14477;51.038;4.588;2024-01-27T01:53:26;6.10;99.90
26909;DHT22;14477;51.038;4.588;2024-01-27T01:55:52;3.90;99.90
26909;DHT22;14477;51.038;4.588;2024-01-27T01:58:18;3.90;99.90
26909;DHT22;14477;51.038;4.588;2024-01-27T02:00:44;3.80;99.90
26909;DHT22;14477;51.038;4.588;2024-01-27T02:03:13;3.80;99.90
26909;DHT22;14477;51.038;4.588;2024-01-27T02:05:40;3.80;99.90
26909;DHT22;14477;51.038;4.588;2024-01-27T02:08:05;3.80;99.90
26909;DHT22;14477;51.038;4.588;2024-01-27T02:10:31;3.80;99.90
26909;DHT22;14477;51.038;4.588;2024-01-27T02:13:23;2.90;99.90
26909;DHT22;14477;51.038;4.588;2024-01-27T02:15:50;3.70;99.90
26909;DHT22;14477;51.038;4.588;2024-01-27T02:18:16;3.70;99.90
26909;DHT22;14477;51.038;4.588;2024-01-27T02:20:43;3.80;99.90
26909;DHT22;14477;51.038;4.588;2024-01-27T02:23:08;3.70;99.90
26909;DHT22;14477;51.038;4.588;2024-01-27T02:25:35;6.00;99.90
26909;DHT22;14477;51.038;4.588;2024-01-27T02:28:01;3.60;99.90
26909;DHT22;14477;51.038;4.588;2024-01-27T02:30:28;3.60;99.90
26909;DHT22;14477;51.038;4.588;2024-01-27T02:32:56;3.50;99.90
26909;DHT22;14477;51.038;4.588;2024-01-27T02:35:22;3.50;99.90
26909;DHT22;14477;51.038;4.588;2024-01-27T02:37:48;3.50;99.90
26909;DHT22;14477;51.038;4.588;2024-01-27T02:40:14;2.30;99.90
26909;DHT22;14477;51.038;4.588;2024-01-27T02:42:40;3.40;99.90
26909;DHT22;14477;51.038;4.588;2024-01-27T02:45:08;3.40;99.90
26909;DHT22;14477;51.038;4.588;2024-01-27T02:47:34;3.40;99.90
26909;DHT22;14477;51.038;4.588;2024-01-27T02:50:00;3.30;99.90
26909;DHT22;14477;51.038;4.588;2024-01-27T02:54:53;3.30;99.90
26909;DHT22;14477;51.038;4.588;2024-01-27T02:57:19;3.30;99.90
26909;DHT22;14477;51.038;4.588;2024-01-27T02:59:46;3.30;99.90
26909;DHT22;14477;51.038;4.588;2024-01-27T03:02:12;3.20;99.90
26909;DHT22;14477;51.038;4.588;2024-01-27T03:04:37;3.20;99.90
26909;DHT22;14477;51.038;4.588;2024-01-27T03:07:03;2.70;99.90
26909;DHT22;14477;51.038;4.588;2024-01-27T03:09:30;3.20;99.90
26909;DHT22;14477;51.038;4.588;2024-01-27T03:11:56;3.20;99.90
26909;DHT22;14477;51.038;4.588;2024-01-27T03:14:22;3.20;99.90
26909;DHT22;14477;51.038;4.588;2024-01-27T03:16:48;1.40;99.90
26909;DHT22;14477;51.038;4.588;2024-01-27T03:19:14;3.20;99.90
26909;DHT22;14477;51.038;4.588;2024-01-27T03:21:40;1.90;99.90
26909;DHT22;14477;51.038;4.588;2024-01-27T03:24:05;5.80;99.90
26909;DHT22;14477;51.038;4.588;2024-01-27T03:26:31;3.20;99.90
26909;DHT22;14477;51.038;4.588;2024-01-27T03:28:57;3.20;99.90
26909;DHT22;14477;51.038;4.588;2024-01-27T03:31:23;3.20;99.90
26909;DHT22;14477;51.038;4.588;2024-01-27T03:33:49;3.20;99.90
26909;DHT22;14477;51.038;4.588;2024-01-27T03:36:15;3.20;99.90
26909;DHT22;14477;51.038;4.588;2024-01-27T03:38:42;3.20;99.90
26909;DHT22;14477;51.038;4.588;2024-01-27T03:41:08;3.10;99.90
26909;DHT22;14477;51.038;4.588;2024-01-27T03:43:34;3.20;99.90
26909;DHT22;14477;51.038;4.588;2024-01-27T03:46:00;3.20;99.90
26909;DHT22;14477;51.038;4.588;2024-01-27T03:48:26;3.10;99.90
26909;DHT22;14477;51.038;4.588;2024-01-27T03:50:51;3.10;99.90
26909;DHT22;14477;51.038;4.588;2024-01-27T03:53:17;3.10;99.90
26909;DHT22;14477;51.038;4.588;2024-01-27T03:55:43;3.10;99.90
26909;DHT22;14477;51.038;4.588;2024-01-27T03:58:08;3.10;99.90
26909;DHT22;14477;51.038;4.588;2024-01-27T04:00:34;3.00;99.90
26909;DHT22;14477;51.038;4.588;2024-01-27T04:03:00;3.00;99.90
26909;DHT22;14477;51.038;4.588;2024-01-27T04:05:27;3.00;99.90
26909;DHT22;14477;51.038;4.588;2024-01-27T04:07:53;2.90;99.90
26909;DHT22;14477;51.038;4.588;2024-01-27T04:10:18;2.90;99.90
26909;DHT22;14477;51.038;4.588;2024-01-27T04:12:44;0.50;99.90
26909;DHT22;14477;51.038;4.588;2024-01-27T04:15:10;2.90;99.90
26909;DHT22;14477;51.038;4.588;2024-01-27T04:17:40;2.90;99.90
26909;DHT22;14477;51.038;4.588;2024-01-27T04:20:07;2.90;99.90
26909;DHT22;14477;51.038;4.588;2024-01-27T04:22:34;2.90;99.90
26909;DHT22;14477;51.038;4.588;2024-01-27T04:24:59;2.90;99.90
26909;DHT22;14477;51.038;4.588;2024-01-27T04:27:27;2.80;99.90
26909;DHT22;14477;51.038;4.588;2024-01-27T04:29:53;2.80;99.90
26909;DHT22;14477;51.038;4.588;2024-01-27T04:32:19;2.80;99.90
26909;DHT22;14477;51.038;4.588;2024-01-27T04:34:44;2.80;99.90
26909;DHT22;14477;51.038;4.588;2024-01-27T04:37:10;2.80;99.90
26909;DHT22;14477;51.038;4.588;2024-01-27T04:39:37;2.80;99.90
26909;DHT22;14477;51.038;4.588;2024-01-27T04:42:03;2.70;99.90
26909;DHT22;14477;51.038;4.588;2024-01-27T04:44:28;2.70;99.90
26909;DHT22;14477;51.038;4.588;2024-01-27T04:46:54;2.80;99.90
26909;DHT22;14477;51.038;4.588;2024-01-27T04:49:20;1.00;99.90
26909;DHT22;14477;51.038;4.588;2024-01-27T04:51:45;2.60;99.90
26909;DHT22;14477;51.038;4.588;2024-01-27T04:54:11;2.60;99.90
26909;DHT22;14477;51.038;4.588;2024-01-27T04:56:37;2.60;99.90
26909;DHT22;14477;51.038;4.588;2024-01-27T04:59:03;2.60;99.90
26909;DHT22;14477;51.038;4.588;2024-01-27T05:01:28;2.60;99.90
26909;DHT22;14477;51.038;4.588;2024-01-27T05:03:54;2.50;99.90
26909;DHT22;14477;51.038;4.588;2024-01-27T05:06:20;2.50;99.90
26909;DHT22;14477;51.038;4.588;2024-01-27T05:08:46;2.50;99.90
26909;DHT22;14477;51.038;4.588;2024-01-27T05:11:11;2.50;99.90
26909;DHT22;14477;51.038;4.588;2024-01-27T05:13:37;2.50;99.90
26909;DHT22;14477;51.038;4.588;2024-01-27T05:16:05;2.40;99.90
26909;DHT22;14477;51.038;4.588;2024-01-27T05:18:31;2.40;99.90
26909;DHT22;14477;51.038;4.588;2024-01-27T05:20:57;2.40;99.90
26909;DHT22;14477;51.038;4.588;2024-01-27T05:23:23;2.40;99.90
26909;DHT22;14477;51.038;4.588;2024-01-27T05:25:49;2.40;99.90
26909;DHT22;14477;51.038;4.588;2024-01-27T05:28:14;2.40;99.90
26909;DHT22;14477;51.038;4.588;2024-01-27T05:30:40;2.30;99.90
26909;DHT22;14477;51.038;4.588;2024-01-27T05:33:06;2.30;99.90
26909;DHT22;14477;51.038;4.588;2024-01-27T05:35:31;2.30;99.90
26909;DHT22;14477;51.038;4.588;2024-01-27T05:37:57;2.30;99.90
26909;DHT22;14477;51.038;4.588;2024-01-27T05:40:23;2.30;99.90
26909;DHT22;14477;51.038;4.588;2024-01-27T05:42:48;2.30;99.90
26909;DHT22;14477;51.038;4.588;2024-01-27T05:45:15;2.30;99.90
26909;DHT22;14477;51.038;4.588;2024-01-27T05:47:41;2.30;99.90
26909;DHT22;14477;51.038;4.588;2024-01-27T05:50:07;2.20;99.90
26909;DHT22;14477;51.038;4.588;2024-01-27T05:52:37;2.20;99.90
26909;DHT22;14477;51.038;4.588;2024-01-27T05:55:02;2.30;99.90
26909;DHT22;14477;51.038;4.588;2024-01-27T05:57:32;2.20;99.90
26909;DHT22;14477;51.038;4.588;2024-01-27T05:59:57;2.20;99.90
26909;DHT22;14477;51.038;4.588;2024-01-27T06:02:23;2.20;99.90
26909;DHT22;14477;51.038;4.588;2024-01-27T06:04:49;2.20;99.90
26909;DHT22;14477;51.038;4.588;2024-01-27T06:07:15;2.20;99.90
26909;DHT22;14477;51.038;4.588;2024-01-27T06:09:40;2.20;99.90
26909;DHT22;14477;51.038;4.588;2024-01-27T06:12:06;2.30;99.90
26909;DHT22;14477;51.038;4.588;2024-01-27T06:14:32;2.20;99.90
26909;DHT22;14477;51.038;4.588;2024-01-27T06:16:58;2.20;99.90
26909;DHT22;14477;51.038;4.588;2024-01-27T06:19:23;2.20;99.90
26909;DHT22;14477;51.038;4.588;2024-01-27T06:21:49;2.20;99.90
26909;DHT22;14477;51.038;4.588;2024-01-27T06:24:15;2.20;99.90
26909;DHT22;14477;51.038;4.588;2024-01-27T06:26:41;2.20;99.90
26909;DHT22;14477;51.038;4.588;2024-01-27T06:29:06;2.20;99.90
26909;DHT22;14477;51.038;4.588;2024-01-27T06:31:32;2.20;99.90
26909;DHT22;14477;51.038;4.588;2024-01-27T06:33:57;2.20;99.90
26909;DHT22;14477;51.038;4.588;2024-01-27T06:36:23;-1.00;99.90
26909;DHT22;14477;51.038;4.588;2024-01-27T06:38:51;2.10;99.90
26909;DHT22;14477;51.038;4.588;2024-01-27T06:41:17;2.10;99.90
26909;DHT22;14477;51.038;4.588;2024-01-27T06:43:42;2.10;99.90
26909;DHT22;14477;51.038;4.588;2024-01-27T06:46:08;2.10;99.90
26909;DHT22;14477;51.038;4.588;2024-01-27T06:48:34;2.10;99.90
26909;DHT22;14477;51.038;4.588;2024-01-27T06:51:00;2.10;99.90
26909;DHT22;14477;51.038;4.588;2024-01-27T06:53:26;2.10;99.90
26909;DHT22;14477;51.038;4.588;2024-01-27T06:55:51;2.10;99.90
26909;DHT22;14477;51.038;4.588;2024-01-27T06:58:17;2.10;99.90
26909;DHT22;14477;51.038;4.588;2024-01-27T07:00:42;3.10;99.90
26909;DHT22;14477;51.038;4.588;2024-01-27T07:03:10;2.00;99.90
26909;DHT22;14477;51.038;4.588;2024-01-27T07:05:36;2.00;99.90
26909;DHT22;14477;51.038;4.588;2024-01-27T07:08:09;2.00;99.90
26909;DHT22;14477;51.038;4.588;2024-01-27T07:10:35;3.00;99.90
26909;DHT22;14477;51.038;4.588;2024-01-27T07:13:01;4.50;99.90
26909;DHT22;14477;51.038;4.588;2024-01-27T07:15:27;2.00;99.90
26909;DHT22;14477;51.038;4.588;2024-01-27T07:17:54;4.90;99.90
26909;DHT22;14477;51.038;4.588;2024-01-27T07:20:20;2.10;99.90
26909;DHT22;14477;51.038;4.588;2024-01-27T07:22:50;0.00;99.90
26909;DHT22;14477;51.038;4.588;2024-01-27T07:25:15;2.00;99.90
26909;DHT22;14477;51.038;4.588;2024-01-27T07:27:41;2.00;99.90
26909;DHT22;14477;51.038;4.588;2024-01-27T07:30:07;4.30;99.90
26909;DHT22;14477;51.038;4.588;2024-01-27T07:32:36;2.00;99.90
26909;DHT22;14477;51.038;4.588;2024-01-27T07:35:03;2.00;99.90
26909;DHT22;14477;51.038;4.588;2024-01-27T07:37:31;2.00;99.90
26909;DHT22;14477;51.038;4.588;2024-01-27T07:39:56;2.00;99.90
26909;DHT22;14477;51.038;4.588;2024-01-27T07:42:22;2.00;99.90
26909;DHT22;14477;51.038;4.588;2024-01-27T07:44:48;2.00;99.90
26909;DHT22;14477;51.038;4.588;2024-01-27T07:47:14;2.00;99.90
26909;DHT22;14477;51.038;4.588;2024-01-27T07:49:40;2.00;99.90
26909;DHT22;14477;51.038;4.588;2024-01-27T07:52:06;3.20;99.90
26909;DHT22;14477;51.038;4.588;2024-01-27T07:54:32;2.10;99.90
26909;DHT22;14477;51.038;4.588;2024-01-27T07:56:58;2.10;99.90
26909;DHT22;14477;51.038;4.588;2024-01-27T07:59:24;2.10;99.90
26909;DHT22;14477;51.038;4.588;2024-01-27T08:01:50;0.00;99.90
26909;DHT22;14477;51.038;4.588;2024-01-27T08:04:15;1.20;99.90
26909;DHT22;14477;51.038;4.588;2024-01-27T08:06:49;2.30;99.90
26909;DHT22;14477;51.038;4.588;2024-01-27T08:09:16;2.40;99.90
26909;DHT22;14477;51.038;4.588;2024-01-27T08:11:42;2.50;99.90
26909;DHT22;14477;51.038;4.588;2024-01-27T08:14:08;2.60;99.90
26909;DHT22;14477;51.038;4.588;2024-01-27T08:16:34;2.70;99.90
26909;DHT22;14477;51.038;4.588;2024-01-27T08:19:00;2.80;99.90
26909;DHT22;14477;51.038;4.588;2024-01-27T08:21:25;2.90;99.90
26909;DHT22;14477;51.038;4.588;2024-01-27T08:23:51;3.10;99.90
26909;DHT22;14477;51.038;4.588;2024-01-27T08:26:17;3.20;99.90
26909;DHT22;14477;51.038;4.588;2024-01-27T08:28:44;3.20;99.90
26909;DHT22;14477;51.038;4.588;2024-01-27T08:31:10;3.30;99.90
26909;DHT22;14477;51.038;4.588;2024-01-27T08:33:35;3.40;99.90
26909;DHT22;14477;51.038;4.588;2024-01-27T08:36:01;3.50;99.90
26909;DHT22;14477;51.038;4.588;2024-01-27T08:38:27;3.50;99.90
26909;DHT22;14477;51.038;4.588;2024-01-27T08:40:53;3.60;99.90
26909;DHT22;14477;51.038;4.588;2024-01-27T08:43:19;3.60;99.90
26909;DHT22;14477;51.038;4.588;2024-01-27T08:45:45;3.70;99.90
26909;DHT22;14477;51.038;4.588;2024-01-27T08:48:10;3.70;99.90
26909;DHT22;14477;51.038;4.588;2024-01-27T08:50:37;3.80;99.90
26909;DHT22;14477;51.038;4.588;2024-01-27T08:53:03;3.90;99.90
26909;DHT22;14477;51.038;4.588;2024-01-27T08:55:29;4.00;99.90
26909;DHT22;14477;51.038;4.588;2024-01-27T08:57:56;4.10;99.90
26909;DHT22;14477;51.038;4.588;2024-01-27T09:00:21;4.30;99.90
26909;DHT22;14477;51.038;4.588;2024-01-27T09:02:47;4.40;99.90
26909;DHT22;14477;51.038;4.588;2024-01-27T09:05:13;4.60;99.90
26909;DHT22;14477;51.038;4.588;2024-01-27T09:07:39;4.80;99.90
26909;DHT22;14477;51.038;4.588;2024-01-27T09:10:05;4.90;99.90
26909;DHT22;14477;51.038;4.588;2024-01-27T09:12:31;5.10;99.90
26909;DHT22;14477;51.038;4.588;2024-01-27T09:14:56;5.40;99.90
26909;DHT22;14477;51.038;4.588;2024-01-27T09:17:22;8.00;99.90
26909;DHT22;14477;51.038;4.588;2024-01-27T09:19:48;5.70;99.90
26909;DHT22;14477;51.038;4.588;2024-01-27T09:22:14;5.80;99.90
26909;DHT22;14477;51.038;4.588;2024-01-27T09:24:40;6.10;99.90
26909;DHT22;14477;51.038;4.588;2024-01-27T09:27:06;5.60;99.90
26909;DHT22;14477;51.038;4.588;2024-01-27T09:29:32;6.40;99.90
26909;DHT22;14477;51.038;4.588;2024-01-27T09:31:57;6.60;99.90
26909;DHT22;14477;51.038;4.588;2024-01-27T09:34:23;6.70;99.90
26909;DHT22;14477;51.038;4.588;2024-01-27T09:36:49;6.90;99.90
26909;DHT22;14477;51.038;4.588;2024-01-27T09:39:15;7.10;99.90
26909;DHT22;14477;51.038;4.588;2024-01-27T09:41:41;7.30;99.90
26909;DHT22;14477;51.038;4.588;2024-01-27T09:44:07;7.60;99.90
26909;DHT22;14477;51.038;4.588;2024-01-27T09:46:33;7.90;99.90
26909;DHT22;14477;51.038;4.588;2024-01-27T09:48:59;8.20;99.90
26909;DHT22;14477;51.038;4.588;2024-01-27T09:51:26;8.60;99.90
26909;DHT22;14477;51.038;4.588;2024-01-27T09:53:53;8.90;99.90
26909;DHT22;14477;51.038;4.588;2024-01-27T09:56:19;9.30;99.90
26909;DHT22;14477;51.038;4.588;2024-01-27T09:58:46;9.70;99.90
26909;DHT22;14477;51.038;4.588;2024-01-27T10:01:12;10.20;99.90
26909;DHT22;14477;51.038;4.588;2024-01-27T10:03:41;10.60;99.90
26909;DHT22;14477;51.038;4.588;2024-01-27T10:06:09;11.10;99.90
26909;DHT22;14477;51.038;4.588;2024-01-27T10:08:35;11.60;99.90
26909;DHT22;14477;51.038;4.588;2024-01-27T10:11:06;12.00;99.90
26909;DHT22;14477;51.038;4.588;2024-01-27T10:13:33;12.50;99.90
26909;DHT22;14477;51.038;4.588;2024-01-27T10:16:04;12.80;99.90
26909;DHT22;14477;51.038;4.588;2024-01-27T10:18:30;13.30;99.90
26909;DHT22;14477;51.038;4.588;2024-01-27T10:20:56;13.60;99.90
26909;DHT22;14477;51.038;4.588;2024-01-27T10:23:22;13.90;99.90
26909;DHT22;14477;51.038;4.588;2024-01-27T10:25:49;14.20;99.90
26909;DHT22;14477;51.038;4.588;2024-01-27T10:28:14;14.50;99.90
26909;DHT22;14477;51.038;4.588;2024-01-27T10:30:40;14.80;99.90
26909;DHT22;14477;51.038;4.588;2024-01-27T10:33:10;15.00;99.90
26909;DHT22;14477;51.038;4.588;2024-01-27T10:35:42;15.30;99.90
26909;DHT22;14477;51.038;4.588;2024-01-27T10:38:09;15.50;99.90
26909;DHT22;14477;51.038;4.588;2024-01-27T10:40:37;15.80;99.90
26909;DHT22;14477;51.038;4.588;2024-01-27T10:43:07;16.00;99.90
26909;DHT22;14477;51.038;4.588;2024-01-27T10:45:40;16.20;99.90
26909;DHT22;14477;51.038;4.588;2024-01-27T10:48:10;16.40;99.90
26909;DHT22;14477;51.038;4.588;2024-01-27T10:50:38;16.50;99.90
26909;DHT22;14477;51.038;4.588;2024-01-27T10:53:07;16.70;99.90
26909;DHT22;14477;51.038;4.588;2024-01-27T10:55:34;16.70;99.90
26909;DHT22;14477;51.038;4.588;2024-01-27T10:58:03;16.70;99.90
26909;DHT22;14477;51.038;4.588;2024-01-27T11:00:30;16.70;99.90
26909;DHT22;14477;51.038;4.588;2024-01-27T11:03:01;16.60;99.90
26909;DHT22;14477;51.038;4.588;2024-01-27T11:05:28;16.40;99.90
26909;DHT22;14477;51.038;4.588;2024-01-27T11:07:59;16.20;99.90
26909;DHT22;14477;51.038;4.588;2024-01-27T11:10:25;16.10;99.90
26909;DHT22;14477;51.038;4.588;2024-01-27T11:12:53;16.20;99.90
26909;DHT22;14477;51.038;4.588;2024-01-27T11:15:21;16.20;99.90
26909;DHT22;14477;51.038;4.588;2024-01-27T11:17:47;16.30;99.90
26909;DHT22;14477;51.038;4.588;2024-01-27T11:20:13;16.50;99.90
26909;DHT22;14477;51.038;4.588;2024-01-27T11:22:42;16.70;99.90
26909;DHT22;14477;51.038;4.588;2024-01-27T11:27:42;17.00;99.90
26909;DHT22;14477;51.038;4.588;2024-01-27T11:30:28;17.20;99.90
26909;DHT22;14477;51.038;4.588;2024-01-27T11:32:56;17.40;99.90
26909;DHT22;14477;51.038;4.588;2024-01-27T11:35:23;17.50;99.90
26909;DHT22;14477;51.038;4.588;2024-01-27T11:37:49;17.70;99.90
26909;DHT22;14477;51.038;4.588;2024-01-27T11:40:15;17.80;99.90
26909;DHT22;14477;51.038;4.588;2024-01-27T11:42:41;17.90;99.90
26909;DHT22;14477;51.038;4.588;2024-01-27T11:45:10;18.00;99.90
26909;DHT22;14477;51.038;4.588;2024-01-27T11:47:37;18.20;99.90
26909;DHT22;14477;51.038;4.588;2024-01-27T11:50:03;18.30;99.90
26909;DHT22;14477;51.038;4.588;2024-01-27T11:52:29;18.30;99.90
26909;DHT22;14477;51.038;4.588;2024-01-27T11:54:58;18.40;99.90
26909;DHT22;14477;51.038;4.588;2024-01-27T11:57:25;18.50;99.90
26909;DHT22;14477;51.038;4.588;2024-01-27T11:59:52;18.60;99.90
26909;DHT22;14477;51.038;4.588;2024-01-27T12:02:18;18.70;99.90
26909;DHT22;14477;51.038;4.588;2024-01-27T12:04:44;18.70;99.90
26909;DHT22;14477;51.038;4.588;2024-01-27T12:07:10;18.70;99.90
26909;DHT22;14477;51.038;4.588;2024-01-27T12:09:37;18.50;99.90
26909;DHT22;14477;51.038;4.588;2024-01-27T12:12:04;18.40;99.90
26909;DHT22;14477;51.038;4.588;2024-01-27T12:14:46;18.10;99.90
26909;DHT22;14477;51.038;4.588;2024-01-27T12:17:13;17.80;99.90
26909;DHT22;14477;51.038;4.588;2024-01-27T12:19:39;17.50;99.90
26909;DHT22;14477;51.038;4.588;2024-01-27T12:22:05;17.20;99.90
26909;DHT22;14477;51.038;4.588;2024-01-27T12:24:45;16.90;99.90
26909;DHT22;14477;51.038;4.588;2024-01-27T12:27:11;16.70;99.90
26909;DHT22;14477;51.038;4.588;2024-01-27T12:29:37;16.50;99.90
26909;DHT22;14477;51.038;4.588;2024-01-27T12:32:02;16.40;99.90
26909;DHT22;14477;51.038;4.588;2024-01-27T12:34:29;16.20;99.90
26909;DHT22;14477;51.038;4.588;2024-01-27T12:36:55;16.10;99.90
26909;DHT22;14477;51.038;4.588;2024-01-27T12:39:21;15.90;99.90
26909;DHT22;14477;51.038;4.588;2024-01-27T12:41:47;15.90;99.90
26909;DHT22;14477;51.038;4.588;2024-01-27T12:44:12;15.80;99.90
26909;DHT22;14477;51.038;4.588;2024-01-27T12:46:38;15.60;99.90
26909;DHT22;14477;51.038;4.588;2024-01-27T12:49:04;15.60;99.90
26909;DHT22;14477;51.038;4.588;2024-01-27T12:51:30;15.50;99.90
26909;DHT22;14477;51.038;4.588;2024-01-27T12:53:56;15.40;99.90
26909;DHT22;14477;51.038;4.588;2024-01-27T12:56:22;15.40;99.90
26909;DHT22;14477;51.038;4.588;2024-01-27T12:58:48;15.30;99.90
26909;DHT22;14477;51.038;4.588;2024-01-27T13:01:14;15.30;99.90
26909;DHT22;14477;51.038;4.588;2024-01-27T13:03:41;15.10;99.90
26909;DHT22;14477;51.038;4.588;2024-01-27T13:06:06;15.10;99.90
26909;DHT22;14477;51.038;4.588;2024-01-27T13:08:32;15.00;99.90
26909;DHT22;14477;51.038;4.588;2024-01-27T13:10:58;15.00;99.90
26909;DHT22;14477;51.038;4.588;2024-01-27T13:13:24;15.00;99.90
26909;DHT22;14477;51.038;4.588;2024-01-27T13:15:50;15.00;99.90
26909;DHT22;14477;51.038;4.588;2024-01-27T13:18:16;15.00;99.90
26909;DHT22;14477;51.038;4.588;2024-01-27T13:20:42;15.10;99.90
26909;DHT22;14477;51.038;4.588;2024-01-27T13:23:08;15.10;99.90
26909;DHT22;14477;51.038;4.588;2024-01-27T13:25:33;15.20;99.90
26909;DHT22;14477;51.038;4.588;2024-01-27T13:27:59;15.30;99.90
26909;DHT22;14477;51.038;4.588;2024-01-27T13:30:25;15.30;99.90
26909;DHT22;14477;51.038;4.588;2024-01-27T13:32:52;15.40;99.90
26909;DHT22;14477;51.038;4.588;2024-01-27T13:35:18;15.30;99.90
26909;DHT22;14477;51.038;4.588;2024-01-27T13:37:43;15.40;99.90
26909;DHT22;14477;51.038;4.588;2024-01-27T13:40:09;14.60;99.90
26909;DHT22;14477;51.038;4.588;2024-01-27T13:42:38;15.30;99.90
26909;DHT22;14477;51.038;4.588;2024-01-27T13:45:04;15.40;99.90
26909;DHT22;14477;51.038;4.588;2024-01-27T13:47:30;15.40;99.90
26909;DHT22;14477;51.038;4.588;2024-01-27T13:49:57;15.40;99.90
26909;DHT22;14477;51.038;4.588;2024-01-27T13:52:23;15.40;99.90
26909;DHT22;14477;51.038;4.588;2024-01-27T13:54:49;15.00;99.90
26909;DHT22;14477;51.038;4.588;2024-01-27T13:57:15;15.60;99.90
26909;DHT22;14477;51.038;4.588;2024-01-27T13:59:41;15.60;99.90
26909;DHT22;14477;51.038;4.588;2024-01-27T14:02:07;15.70;99.90
26909;DHT22;14477;51.038;4.588;2024-01-27T14:04:34;15.80;99.90
26909;DHT22;14477;51.038;4.588;2024-01-27T14:07:00;15.90;99.90
26909;DHT22;14477;51.038;4.588;2024-01-27T14:09:32;15.90;99.90
26909;DHT22;14477;51.038;4.588;2024-01-27T14:11:58;16.00;99.90
26909;DHT22;14477;51.038;4.588;2024-01-27T14:14:24;16.00;99.90
26909;DHT22;14477;51.038;4.588;2024-01-27T14:16:49;16.00;99.90
26909;DHT22;14477;51.038;4.588;2024-01-27T14:19:15;16.10;99.90
26909;DHT22;14477;51.038;4.588;2024-01-27T14:21:41;16.10;99.90
26909;DHT22;14477;51.038;4.588;2024-01-27T14:24:08;16.10;99.90
26909;DHT22;14477;51.038;4.588;2024-01-27T14:26:34;16.00;99.90
26909;DHT22;14477;51.038;4.588;2024-01-27T14:29:00;16.00;99.90
26909;DHT22;14477;51.038;4.588;2024-01-27T14:31:26;16.00;99.90
26909;DHT22;14477;51.038;4.588;2024-01-27T14:33:51;16.00;99.90
26909;DHT22;14477;51.038;4.588;2024-01-27T14:36:17;16.00;99.90
26909;DHT22;14477;51.038;4.588;2024-01-27T14:38:43;16.10;99.90
26909;DHT22;14477;51.038;4.588;2024-01-27T14:41:10;16.10;99.90
26909;DHT22;14477;51.038;4.588;2024-01-27T14:43:39;16.10;99.90
26909;DHT22;14477;51.038;4.588;2024-01-27T14:46:05;16.20;99.90
26909;DHT22;14477;51.038;4.588;2024-01-27T14:48:31;16.20;99.90
26909;DHT22;14477;51.038;4.588;2024-01-27T14:50:57;16.10;99.90
26909;DHT22;14477;51.038;4.588;2024-01-27T14:53:30;16.00;99.90
26909;DHT22;14477;51.038;4.588;2024-01-27T14:55:56;15.90;99.90
26909;DHT22;14477;51.038;4.588;2024-01-27T14:58:22;15.70;99.90
26909;DHT22;14477;51.038;4.588;2024-01-27T15:00:48;15.60;99.90
26909;DHT22;14477;51.038;4.588;2024-01-27T15:03:21;15.40;99.90
26909;DHT22;14477;51.038;4.588;2024-01-27T15:05:47;15.20;99.90
26909;DHT22;14477;51.038;4.588;2024-01-27T15:08:15;15.00;99.90
26909;DHT22;14477;51.038;4.588;2024-01-27T15:10:41;14.20;99.90
26909;DHT22;14477;51.038;4.588;2024-01-27T15:13:08;14.80;99.90
26909;DHT22;14477;51.038;4.588;2024-01-27T15:15:36;14.70;99.90
26909;DHT22;14477;51.038;4.588;2024-01-27T15:18:02;14.60;99.90
26909;DHT22;14477;51.038;4.588;2024-01-27T15:20:28;14.50;99.90
26909;DHT22;14477;51.038;4.588;2024-01-27T15:22:53;14.30;99.90
26909;DHT22;14477;51.038;4.588;2024-01-27T15:25:20;14.20;99.90
26909;DHT22;14477;51.038;4.588;2024-01-27T15:27:47;14.10;99.90
26909;DHT22;14477;51.038;4.588;2024-01-27T15:30:13;14.00;99.90
26909;DHT22;14477;51.038;4.588;2024-01-27T15:32:39;13.90;99.90
26909;DHT22;14477;51.038;4.588;2024-01-27T15:35:06;13.90;99.90
26909;DHT22;14477;51.038;4.588;2024-01-27T15:37:32;13.80;99.90
26909;DHT22;14477;51.038;4.588;2024-01-27T15:39:57;13.70;99.90